Impacts METAR Board INFO
IDs:

KSAN - San Diego Intl Arpt, CA, US

Updated at: 2004 UTC 17 Jan 2018
Potential Impact None Slight Moderate High
Time17/08Z 17/09Z 17/10Z 17/11Z 17/12Z 17/13Z 17/14Z 17/15Z 17/16Z 17/17Z 17/18Z 17/19Z 17/20Z
VIS5 4 4 4 4 4 6 10 0.25 10 10 10 10
CIG250 -- -- 250 250 -- -- -- 3 -- -- -- 250
CoverBKNSCTSCTBKNBKNFEWSCTSCTOVXSCTSCTSCTBKN
FltCatMVFRMVFRMVFRMVFRMVFRMVFRVFRVFRLIFRVFRVFRVFRVFR
WXBRBRBRBRBRBRBR--FG--------
WDir00000003103103300310340
WSpd0 0 0 0 0 0 0 3 3 3 0 4 5
WGst-- -- -- -- -- -- -- -- -- -- -- -- --
Raw hourly METARs
KSAN 170751Z 00000KT 5SM BR FEW007 BKN250 15/13 A3014 RMK AO2 SLP206 T01500133 402000122
KSAN 170851Z 00000KT 4SM BR FEW003 SCT250 14/13 A3014 RMK AO2 SLP205 T01440128 56007
KSAN 170951Z 00000KT 4SM BR FEW003 SCT250 14/12 A3014 RMK AO2 SLP206 T01390122
KSAN 171051Z 00000KT 4SM BR FEW003 BKN250 13/12 A3013 RMK AO2 SLP202 T01330117
KSAN 171151Z 00000KT 4SM BR FEW003 BKN250 13/11 A3013 RMK AO2 SLP201 T01330111 10156 20128 58004
KSAN 171251Z 00000KT 4SM BR FEW001 FEW250 12/11 A3013 RMK AO2 SLP203 VIS SW 2 FG FEW001 T01220106
KSAN 171351Z 00000KT 6SM BR FEW003 SCT250 13/10 A3014 RMK AO2 SLP204 T01280100
KSAN 171451Z 31003KT 10SM FEW003 FEW200 SCT250 12/09 A3016 RMK AO2 SLP211 T01170094 53010
KSAN 171602Z 31003KT 1/4SM R09/0500V1400FT FG VV003 12/12 A3017 RMK AO2 T01220117
KSAN 171651Z 33003KT 10SM R09/1000VP6000FT FEW001 SCT200 SCT250 13/12 A3020 RMK AO2 SLP224 VIS SW-W 1 FG FEW001 T01330122
KSAN 171751Z 00000KT 10SM FEW003 FEW200 SCT250 17/12 A3019 RMK AO2 SLP223 T01720117 10172 20117 50012
KSAN 171851Z 31004KT 10SM FEW200 SCT250 20/11 A3017 RMK AO2 SLP215 T02000106
KSAN 171951Z 34005KT 10SM FEW200 BKN250 21/09 A3014 RMK AO2 SLP206 T02060094